sensor_id;sensor_type;location;lat;lon;timestamp;P1;durP1;ratioP1;P2;durP2;ratioP2
75854;SDS011;64502;59.976;30.316;2023-03-14T00:00:27;4.68;;;0.50;;
75854;SDS011;64502;59.976;30.316;2023-03-14T00:02:53;3.45;;;0.70;;
75854;SDS011;64502;59.976;30.316;2023-03-14T00:05:19;5.72;;;1.48;;
75854;SDS011;64502;59.976;30.316;2023-03-14T00:07:44;3.90;;;0.90;;
75854;SDS011;64502;59.976;30.316;2023-03-14T00:10:11;2.53;;;0.77;;
75854;SDS011;64502;59.976;30.316;2023-03-14T00:12:38;5.18;;;0.98;;
75854;SDS011;64502;59.976;30.316;2023-03-14T00:15:04;2.78;;;0.85;;
75854;SDS011;64502;59.976;30.316;2023-03-14T00:17:32;2.72;;;0.68;;
75854;SDS011;64502;59.976;30.316;2023-03-14T00:19:57;1.95;;;0.73;;
75854;SDS011;64502;59.976;30.316;2023-03-14T00:22:29;2.63;;;0.93;;
75854;SDS011;64502;59.976;30.316;2023-03-14T00:24:55;3.85;;;1.02;;
75854;SDS011;64502;59.976;30.316;2023-03-14T00:27:20;5.15;;;1.65;;
75854;SDS011;64502;59.976;30.316;2023-03-14T00:29:45;5.05;;;0.82;;
75854;SDS011;64502;59.976;30.316;2023-03-14T00:32:11;3.25;;;1.15;;
75854;SDS011;64502;59.976;30.316;2023-03-14T00:34:36;1.75;;;0.68;;
75854;SDS011;64502;59.976;30.316;2023-03-14T00:37:02;4.57;;;1.25;;
75854;SDS011;64502;59.976;30.316;2023-03-14T00:39:27;2.78;;;0.90;;
75854;SDS011;64502;59.976;30.316;2023-03-14T00:41:53;3.67;;;1.10;;
75854;SDS011;64502;59.976;30.316;2023-03-14T00:44:18;2.97;;;0.80;;
75854;SDS011;64502;59.976;30.316;2023-03-14T00:46:43;2.40;;;1.25;;
75854;SDS011;64502;59.976;30.316;2023-03-14T00:49:09;1.65;;;0.52;;
75854;SDS011;64502;59.976;30.316;2023-03-14T00:51:34;3.85;;;1.27;;
75854;SDS011;64502;59.976;30.316;2023-03-14T00:54:00;2.90;;;1.15;;
75854;SDS011;64502;59.976;30.316;2023-03-14T00:56:25;4.07;;;1.15;;
75854;SDS011;64502;59.976;30.316;2023-03-14T00:59:00;2.17;;;0.88;;
75854;SDS011;64502;59.976;30.316;2023-03-14T01:01:25;3.60;;;1.08;;
75854;SDS011;64502;59.976;30.316;2023-03-14T01:03:51;3.05;;;1.13;;
75854;SDS011;64502;59.976;30.316;2023-03-14T01:06:22;2.35;;;1.02;;
75854;SDS011;64502;59.976;30.316;2023-03-14T01:08:49;2.33;;;0.73;;
75854;SDS011;64502;59.976;30.316;2023-03-14T01:11:21;3.67;;;1.15;;
75854;SDS011;64502;59.976;30.316;2023-03-14T01:13:48;3.38;;;0.70;;
75854;SDS011;64502;59.976;30.316;2023-03-14T01:16:14;2.15;;;0.88;;
75854;SDS011;64502;59.976;30.316;2023-03-14T01:18:41;4.53;;;1.17;;
75854;SDS011;64502;59.976;30.316;2023-03-14T01:21:12;3.22;;;1.30;;
75854;SDS011;64502;59.976;30.316;2023-03-14T01:23:38;3.72;;;1.25;;
75854;SDS011;64502;59.976;30.316;2023-03-14T01:26:03;2.67;;;1.00;;
75854;SDS011;64502;59.976;30.316;2023-03-14T01:28:29;2.30;;;0.80;;
75854;SDS011;64502;59.976;30.316;2023-03-14T01:30:54;3.38;;;0.80;;
75854;SDS011;64502;59.976;30.316;2023-03-14T01:33:20;4.22;;;0.80;;
75854;SDS011;64502;59.976;30.316;2023-03-14T01:35:45;2.35;;;0.75;;
75854;SDS011;64502;59.976;30.316;2023-03-14T01:38:11;3.00;;;0.90;;
75854;SDS011;64502;59.976;30.316;2023-03-14T01:40:45;2.38;;;0.75;;
75854;SDS011;64502;59.976;30.316;2023-03-14T01:43:18;3.90;;;1.35;;
75854;SDS011;64502;59.976;30.316;2023-03-14T01:48:30;2.28;;;0.70;;
75854;SDS011;64502;59.976;30.316;2023-03-14T01:50:59;2.28;;;0.70;;
75854;SDS011;64502;59.976;30.316;2023-03-14T01:53:26;1.85;;;0.95;;
75854;SDS011;64502;59.976;30.316;2023-03-14T01:55:52;2.28;;;0.88;;
75854;SDS011;64502;59.976;30.316;2023-03-14T01:58:24;3.22;;;0.93;;
75854;SDS011;64502;59.976;30.316;2023-03-14T02:00:52;3.05;;;1.50;;
75854;SDS011;64502;59.976;30.316;2023-03-14T02:03:18;5.00;;;0.80;;
75854;SDS011;64502;59.976;30.316;2023-03-14T02:05:47;3.13;;;1.25;;
75854;SDS011;64502;59.976;30.316;2023-03-14T02:08:14;4.40;;;1.60;;
75854;SDS011;64502;59.976;30.316;2023-03-14T02:10:44;2.80;;;1.00;;
75854;SDS011;64502;59.976;30.316;2023-03-14T02:13:11;1.95;;;0.70;;
75854;SDS011;64502;59.976;30.316;2023-03-14T02:15:39;1.80;;;0.52;;
75854;SDS011;64502;59.976;30.316;2023-03-14T02:18:04;1.98;;;0.93;;
75854;SDS011;64502;59.976;30.316;2023-03-14T02:20:38;1.67;;;0.70;;
75854;SDS011;64502;59.976;30.316;2023-03-14T02:23:05;2.03;;;0.70;;
75854;SDS011;64502;59.976;30.316;2023-03-14T02:25:42;1.98;;;0.52;;
75854;SDS011;64502;59.976;30.316;2023-03-14T02:28:12;2.13;;;0.65;;
75854;SDS011;64502;59.976;30.316;2023-03-14T02:30:39;3.17;;;1.33;;
75854;SDS011;64502;59.976;30.316;2023-03-14T02:33:09;2.67;;;0.52;;
75854;SDS011;64502;59.976;30.316;2023-03-14T02:35:42;2.45;;;0.98;;
75854;SDS011;64502;59.976;30.316;2023-03-14T02:40:46;1.70;;;0.68;;
75854;SDS011;64502;59.976;30.316;2023-03-14T02:43:11;2.47;;;0.80;;
75854;SDS011;64502;59.976;30.316;2023-03-14T02:48:06;3.42;;;0.77;;
75854;SDS011;64502;59.976;30.316;2023-03-14T02:50:35;1.85;;;0.47;;
75854;SDS011;64502;59.976;30.316;2023-03-14T02:53:00;1.48;;;0.40;;
75854;SDS011;64502;59.976;30.316;2023-03-14T02:55:26;2.65;;;0.80;;
75854;SDS011;64502;59.976;30.316;2023-03-14T02:57:52;3.53;;;0.68;;
75854;SDS011;64502;59.976;30.316;2023-03-14T03:00:18;2.10;;;0.60;;
75854;SDS011;64502;59.976;30.316;2023-03-14T03:02:43;3.45;;;1.40;;
75854;SDS011;64502;59.976;30.316;2023-03-14T03:05:09;2.10;;;0.93;;
75854;SDS011;64502;59.976;30.316;2023-03-14T03:07:34;2.10;;;0.70;;
75854;SDS011;64502;59.976;30.316;2023-03-14T03:10:00;3.60;;;0.88;;
75854;SDS011;64502;59.976;30.316;2023-03-14T03:12:25;3.08;;;1.00;;
75854;SDS011;64502;59.976;30.316;2023-03-14T03:14:51;6.50;;;1.00;;
75854;SDS011;64502;59.976;30.316;2023-03-14T03:17:16;2.95;;;1.20;;
75854;SDS011;64502;59.976;30.316;2023-03-14T03:19:42;2.78;;;1.25;;
75854;SDS011;64502;59.976;30.316;2023-03-14T03:22:08;2.92;;;1.25;;
75854;SDS011;64502;59.976;30.316;2023-03-14T03:24:33;2.53;;;0.90;;
75854;SDS011;64502;59.976;30.316;2023-03-14T03:26:59;2.17;;;0.82;;
75854;SDS011;64502;59.976;30.316;2023-03-14T03:29:24;2.33;;;1.00;;
75854;SDS011;64502;59.976;30.316;2023-03-14T03:31:49;4.10;;;1.42;;
75854;SDS011;64502;59.976;30.316;2023-03-14T03:34:15;2.85;;;1.15;;
75854;SDS011;64502;59.976;30.316;2023-03-14T03:36:41;2.30;;;0.70;;
75854;SDS011;64502;59.976;30.316;2023-03-14T03:39:06;2.22;;;1.05;;
75854;SDS011;64502;59.976;30.316;2023-03-14T03:41:32;4.65;;;1.13;;
75854;SDS011;64502;59.976;30.316;2023-03-14T03:43:57;3.22;;;1.20;;
75854;SDS011;64502;59.976;30.316;2023-03-14T03:46:23;3.72;;;1.02;;
75854;SDS011;64502;59.976;30.316;2023-03-14T03:48:54;2.15;;;0.82;;
75854;SDS011;64502;59.976;30.316;2023-03-14T03:51:20;1.95;;;0.80;;
75854;SDS011;64502;59.976;30.316;2023-03-14T03:53:45;2.67;;;1.05;;
75854;SDS011;64502;59.976;30.316;2023-03-14T03:56:11;3.90;;;1.23;;
75854;SDS011;64502;59.976;30.316;2023-03-14T03:58:36;4.72;;;1.67;;
75854;SDS011;64502;59.976;30.316;2023-03-14T04:01:03;5.35;;;1.10;;
75854;SDS011;64502;59.976;30.316;2023-03-14T04:03:30;4.75;;;1.23;;
75854;SDS011;64502;59.976;30.316;2023-03-14T04:05:59;2.97;;;1.45;;
75854;SDS011;64502;59.976;30.316;2023-03-14T04:08:32;3.85;;;1.17;;
75854;SDS011;64502;59.976;30.316;2023-03-14T04:10:58;3.80;;;1.60;;
75854;SDS011;64502;59.976;30.316;2023-03-14T04:13:26;3.95;;;1.50;;
75854;SDS011;64502;59.976;30.316;2023-03-14T04:15:52;3.13;;;0.88;;
75854;SDS011;64502;59.976;30.316;2023-03-14T04:18:19;2.47;;;1.25;;
75854;SDS011;64502;59.976;30.316;2023-03-14T04:20:45;5.03;;;1.02;;
75854;SDS011;64502;59.976;30.316;2023-03-14T04:23:10;2.25;;;1.02;;
75854;SDS011;64502;59.976;30.316;2023-03-14T04:25:36;3.80;;;1.10;;
75854;SDS011;64502;59.976;30.316;2023-03-14T04:28:01;3.95;;;1.40;;
75854;SDS011;64502;59.976;30.316;2023-03-14T04:30:28;2.75;;;1.20;;
75854;SDS011;64502;59.976;30.316;2023-03-14T04:32:53;3.35;;;1.27;;
75854;SDS011;64502;59.976;30.316;2023-03-14T04:35:19;5.78;;;1.70;;
75854;SDS011;64502;59.976;30.316;2023-03-14T04:37:44;8.05;;;2.15;;
75854;SDS011;64502;59.976;30.316;2023-03-14T04:40:10;6.50;;;1.65;;
75854;SDS011;64502;59.976;30.316;2023-03-14T04:42:36;5.05;;;2.00;;
75854;SDS011;64502;59.976;30.316;2023-03-14T04:45:01;7.95;;;1.80;;
75854;SDS011;64502;59.976;30.316;2023-03-14T04:47:27;3.08;;;1.30;;
75854;SDS011;64502;59.976;30.316;2023-03-14T04:49:53;4.20;;;1.92;;
75854;SDS011;64502;59.976;30.316;2023-03-14T04:52:19;3.60;;;1.00;;
75854;SDS011;64502;59.976;30.316;2023-03-14T04:54:44;4.85;;;1.17;;
75854;SDS011;64502;59.976;30.316;2023-03-14T04:57:09;3.90;;;1.48;;
75854;SDS011;64502;59.976;30.316;2023-03-14T04:59:35;5.53;;;1.45;;
75854;SDS011;64502;59.976;30.316;2023-03-14T05:02:00;6.28;;;1.25;;
75854;SDS011;64502;59.976;30.316;2023-03-14T05:04:26;3.67;;;1.48;;
75854;SDS011;64502;59.976;30.316;2023-03-14T05:06:51;3.13;;;1.23;;
75854;SDS011;64502;59.976;30.316;2023-03-14T05:09:16;9.57;;;1.70;;
75854;SDS011;64502;59.976;30.316;2023-03-14T05:11:42;6.75;;;1.60;;
75854;SDS011;64502;59.976;30.316;2023-03-14T05:14:08;4.50;;;1.08;;
75854;SDS011;64502;59.976;30.316;2023-03-14T05:16:33;4.55;;;1.83;;
75854;SDS011;64502;59.976;30.316;2023-03-14T05:18:59;6.57;;;1.48;;
75854;SDS011;64502;59.976;30.316;2023-03-14T05:21:26;4.25;;;1.50;;
75854;SDS011;64502;59.976;30.316;2023-03-14T05:23:52;13.00;;;1.33;;
75854;SDS011;64502;59.976;30.316;2023-03-14T05:26:17;6.53;;;1.48;;
75854;SDS011;64502;59.976;30.316;2023-03-14T05:28:42;7.55;;;2.58;;
75854;SDS011;64502;59.976;30.316;2023-03-14T05:31:08;5.25;;;1.60;;
75854;SDS011;64502;59.976;30.316;2023-03-14T05:33:34;5.05;;;2.20;;
75854;SDS011;64502;59.976;30.316;2023-03-14T05:35:59;5.95;;;1.77;;
75854;SDS011;64502;59.976;30.316;2023-03-14T05:38:25;4.60;;;1.67;;
75854;SDS011;64502;59.976;30.316;2023-03-14T05:40:50;3.90;;;1.33;;
75854;SDS011;64502;59.976;30.316;2023-03-14T05:43:16;5.68;;;1.25;;
75854;SDS011;64502;59.976;30.316;2023-03-14T05:45:41;8.05;;;1.67;;
75854;SDS011;64502;59.976;30.316;2023-03-14T05:48:07;4.07;;;1.45;;
75854;SDS011;64502;59.976;30.316;2023-03-14T05:50:33;6.40;;;1.02;;
75854;SDS011;64502;59.976;30.316;2023-03-14T05:52:58;5.20;;;1.90;;
75854;SDS011;64502;59.976;30.316;2023-03-14T05:55:24;12.45;;;1.70;;
75854;SDS011;64502;59.976;30.316;2023-03-14T05:57:50;7.53;;;1.05;;
75854;SDS011;64502;59.976;30.316;2023-03-14T06:00:15;7.45;;;1.02;;
75854;SDS011;64502;59.976;30.316;2023-03-14T06:02:41;4.05;;;1.30;;
75854;SDS011;64502;59.976;30.316;2023-03-14T06:05:07;7.38;;;1.58;;
75854;SDS011;64502;59.976;30.316;2023-03-14T06:07:33;4.65;;;1.20;;
75854;SDS011;64502;59.976;30.316;2023-03-14T06:09:58;5.18;;;1.40;;
75854;SDS011;64502;59.976;30.316;2023-03-14T06:12:24;7.00;;;1.27;;
75854;SDS011;64502;59.976;30.316;2023-03-14T06:14:49;4.43;;;1.33;;
75854;SDS011;64502;59.976;30.316;2023-03-14T06:17:15;4.28;;;1.40;;
75854;SDS011;64502;59.976;30.316;2023-03-14T06:19:40;6.45;;;1.30;;
75854;SDS011;64502;59.976;30.316;2023-03-14T06:22:06;3.88;;;1.30;;
75854;SDS011;64502;59.976;30.316;2023-03-14T06:24:31;2.90;;;1.02;;
75854;SDS011;64502;59.976;30.316;2023-03-14T06:26:57;4.75;;;1.52;;
75854;SDS011;64502;59.976;30.316;2023-03-14T06:29:22;4.18;;;1.30;;
75854;SDS011;64502;59.976;30.316;2023-03-14T06:31:47;5.95;;;1.58;;
75854;SDS011;64502;59.976;30.316;2023-03-14T06:34:13;3.35;;;1.17;;
75854;SDS011;64502;59.976;30.316;2023-03-14T06:36:39;4.72;;;1.30;;
75854;SDS011;64502;59.976;30.316;2023-03-14T06:39:04;4.53;;;1.92;;
75854;SDS011;64502;59.976;30.316;2023-03-14T06:41:30;5.63;;;2.08;;
75854;SDS011;64502;59.976;30.316;2023-03-14T06:44:00;4.63;;;1.30;;
75854;SDS011;64502;59.976;30.316;2023-03-14T06:46:34;5.55;;;2.15;;
75854;SDS011;64502;59.976;30.316;2023-03-14T06:49:00;7.60;;;1.50;;
75854;SDS011;64502;59.976;30.316;2023-03-14T06:51:25;6.10;;;2.03;;
75854;SDS011;64502;59.976;30.316;2023-03-14T06:53:51;5.63;;;2.30;;
75854;SDS011;64502;59.976;30.316;2023-03-14T06:56:16;7.68;;;2.38;;
75854;SDS011;64502;59.976;30.316;2023-03-14T06:58:42;4.57;;;1.58;;
75854;SDS011;64502;59.976;30.316;2023-03-14T07:01:17;7.03;;;1.80;;
75854;SDS011;64502;59.976;30.316;2023-03-14T07:03:48;4.20;;;1.55;;
75854;SDS011;64502;59.976;30.316;2023-03-14T07:06:13;4.43;;;1.33;;
75854;SDS011;64502;59.976;30.316;2023-03-14T07:08:38;8.43;;;1.58;;
75854;SDS011;64502;59.976;30.316;2023-03-14T07:11:04;3.70;;;1.80;;
75854;SDS011;64502;59.976;30.316;2023-03-14T07:13:30;3.72;;;1.45;;
75854;SDS011;64502;59.976;30.316;2023-03-14T07:15:55;5.40;;;2.03;;
75854;SDS011;64502;59.976;30.316;2023-03-14T07:18:24;6.65;;;2.30;;
75854;SDS011;64502;59.976;30.316;2023-03-14T07:20:50;5.25;;;1.88;;
75854;SDS011;64502;59.976;30.316;2023-03-14T07:23:16;5.15;;;2.22;;
75854;SDS011;64502;59.976;30.316;2023-03-14T07:25:41;8.50;;;2.25;;
75854;SDS011;64502;59.976;30.316;2023-03-14T07:28:07;6.47;;;2.35;;
75854;SDS011;64502;59.976;30.316;2023-03-14T07:30:33;6.05;;;1.65;;
75854;SDS011;64502;59.976;30.316;2023-03-14T07:32:59;6.50;;;1.83;;
75854;SDS011;64502;59.976;30.316;2023-03-14T07:35:24;6.75;;;2.38;;
75854;SDS011;64502;59.976;30.316;2023-03-14T07:37:49;7.78;;;2.17;;
75854;SDS011;64502;59.976;30.316;2023-03-14T07:40:15;4.10;;;1.95;;
75854;SDS011;64502;59.976;30.316;2023-03-14T07:42:43;3.90;;;1.75;;
75854;SDS011;64502;59.976;30.316;2023-03-14T07:45:09;6.88;;;2.50;;
75854;SDS011;64502;59.976;30.316;2023-03-14T07:47:35;5.65;;;2.45;;
75854;SDS011;64502;59.976;30.316;2023-03-14T07:50:01;7.13;;;2.28;;
75854;SDS011;64502;59.976;30.316;2023-03-14T07:52:27;6.18;;;1.52;;
75854;SDS011;64502;59.976;30.316;2023-03-14T07:54:53;7.35;;;2.45;;
75854;SDS011;64502;59.976;30.316;2023-03-14T07:57:18;4.90;;;2.35;;
75854;SDS011;64502;59.976;30.316;2023-03-14T07:59:44;9.48;;;2.83;;
75854;SDS011;64502;59.976;30.316;2023-03-14T08:02:11;8.82;;;3.13;;
75854;SDS011;64502;59.976;30.316;2023-03-14T08:04:38;6.30;;;2.58;;
75854;SDS011;64502;59.976;30.316;2023-03-14T08:07:04;8.30;;;2.88;;
75854;SDS011;64502;59.976;30.316;2023-03-14T08:09:31;10.13;;;3.45;;
75854;SDS011;64502;59.976;30.316;2023-03-14T08:11:57;8.13;;;3.72;;
75854;SDS011;64502;59.976;30.316;2023-03-14T08:14:23;5.95;;;2.50;;
75854;SDS011;64502;59.976;30.316;2023-03-14T08:16:54;9.50;;;3.67;;
75854;SDS011;64502;59.976;30.316;2023-03-14T08:19:23;7.40;;;2.45;;
75854;SDS011;64502;59.976;30.316;2023-03-14T08:21:49;6.22;;;2.47;;
75854;SDS011;64502;59.976;30.316;2023-03-14T08:24:15;8.85;;;3.20;;
75854;SDS011;64502;59.976;30.316;2023-03-14T08:26:42;7.57;;;3.47;;
75854;SDS011;64502;59.976;30.316;2023-03-14T08:29:08;10.30;;;4.00;;
75854;SDS011;64502;59.976;30.316;2023-03-14T08:31:34;9.32;;;3.63;;
75854;SDS011;64502;59.976;30.316;2023-03-14T08:34:01;11.77;;;4.10;;
75854;SDS011;64502;59.976;30.316;2023-03-14T08:36:27;8.75;;;3.70;;
75854;SDS011;64502;59.976;30.316;2023-03-14T08:38:53;9.18;;;3.70;;
75854;SDS011;64502;59.976;30.316;2023-03-14T08:41:19;10.25;;;3.92;;
75854;SDS011;64502;59.976;30.316;2023-03-14T08:43:45;7.43;;;3.67;;
75854;SDS011;64502;59.976;30.316;2023-03-14T08:46:11;11.90;;;5.78;;
75854;SDS011;64502;59.976;30.316;2023-03-14T08:48:36;6.40;;;2.85;;
75854;SDS011;64502;59.976;30.316;2023-03-14T08:51:09;9.55;;;4.00;;
75854;SDS011;64502;59.976;30.316;2023-03-14T08:53:36;9.23;;;3.45;;
75854;SDS011;64502;59.976;30.316;2023-03-14T08:56:02;7.00;;;2.75;;
75854;SDS011;64502;59.976;30.316;2023-03-14T08:58:30;6.15;;;3.13;;
75854;SDS011;64502;59.976;30.316;2023-03-14T09:00:56;11.48;;;2.80;;
75854;SDS011;64502;59.976;30.316;2023-03-14T09:03:21;9.98;;;3.80;;
75854;SDS011;64502;59.976;30.316;2023-03-14T09:05:48;9.98;;;2.88;;
75854;SDS011;64502;59.976;30.316;2023-03-14T09:08:14;7.00;;;2.85;;
75854;SDS011;64502;59.976;30.316;2023-03-14T09:10:40;7.97;;;2.97;;
75854;SDS011;64502;59.976;30.316;2023-03-14T09:13:05;7.15;;;2.85;;
75854;SDS011;64502;59.976;30.316;2023-03-14T09:15:31;8.23;;;3.17;;
75854;SDS011;64502;59.976;30.316;2023-03-14T09:17:56;6.75;;;3.28;;
75854;SDS011;64502;59.976;30.316;2023-03-14T09:20:22;10.65;;;3.83;;
75854;SDS011;64502;59.976;30.316;2023-03-14T09:22:48;7.82;;;3.47;;
75854;SDS011;64502;59.976;30.316;2023-03-14T09:25:13;9.80;;;3.15;;
75854;SDS011;64502;59.976;30.316;2023-03-14T09:27:39;7.65;;;3.55;;
75854;SDS011;64502;59.976;30.316;2023-03-14T09:30:04;8.80;;;2.85;;
75854;SDS011;64502;59.976;30.316;2023-03-14T09:32:30;6.60;;;3.08;;
75854;SDS011;64502;59.976;30.316;2023-03-14T09:34:59;9.77;;;3.80;;
75854;SDS011;64502;59.976;30.316;2023-03-14T09:37:25;10.73;;;4.35;;
75854;SDS011;64502;59.976;30.316;2023-03-14T09:39:51;12.45;;;3.72;;
75854;SDS011;64502;59.976;30.316;2023-03-14T09:42:18;6.72;;;3.03;;
75854;SDS011;64502;59.976;30.316;2023-03-14T09:44:57;9.68;;;3.85;;
75854;SDS011;64502;59.976;30.316;2023-03-14T09:47:24;9.40;;;2.92;;
75854;SDS011;64502;59.976;30.316;2023-03-14T09:49:50;7.78;;;3.70;;
75854;SDS011;64502;59.976;30.316;2023-03-14T09:52:32;8.38;;;3.08;;
75854;SDS011;64502;59.976;30.316;2023-03-14T09:55:20;7.22;;;3.08;;
75854;SDS011;64502;59.976;30.316;2023-03-14T09:57:49;8.77;;;3.17;;
75854;SDS011;64502;59.976;30.316;2023-03-14T10:00:23;11.18;;;3.72;;
75854;SDS011;64502;59.976;30.316;2023-03-14T10:02:53;10.18;;;3.55;;
75854;SDS011;64502;59.976;30.316;2023-03-14T10:05:42;11.77;;;3.97;;
75854;SDS011;64502;59.976;30.316;2023-03-14T10:08:11;11.90;;;3.95;;
75854;SDS011;64502;59.976;30.316;2023-03-14T10:10:38;8.68;;;3.90;;
75854;SDS011;64502;59.976;30.316;2023-03-14T10:13:12;8.88;;;3.42;;
75854;SDS011;64502;59.976;30.316;2023-03-14T10:15:47;5.82;;;2.70;;
75854;SDS011;64502;59.976;30.316;2023-03-14T10:18:16;12.35;;;4.05;;
75854;SDS011;64502;59.976;30.316;2023-03-14T10:20:44;8.88;;;4.30;;
75854;SDS011;64502;59.976;30.316;2023-03-14T10:25:42;8.32;;;3.08;;
75854;SDS011;64502;59.976;30.316;2023-03-14T10:28:27;9.25;;;2.72;;
75854;SDS011;64502;59.976;30.316;2023-03-14T10:30:55;9.20;;;3.20;;
75854;SDS011;64502;59.976;30.316;2023-03-14T10:33:40;7.25;;;3.20;;
75854;SDS011;64502;59.976;30.316;2023-03-14T10:36:19;8.55;;;3.33;;
75854;SDS011;64502;59.976;30.316;2023-03-14T10:38:48;8.27;;;3.60;;
75854;SDS011;64502;59.976;30.316;2023-03-14T10:41:25;8.60;;;3.17;;
75854;SDS011;64502;59.976;30.316;2023-03-14T10:43:56;9.55;;;2.85;;
75854;SDS011;64502;59.976;30.316;2023-03-14T10:46:24;8.68;;;3.13;;
75854;SDS011;64502;59.976;30.316;2023-03-14T10:48:55;7.13;;;2.78;;
75854;SDS011;64502;59.976;30.316;2023-03-14T10:51:29;8.25;;;4.13;;
75854;SDS011;64502;59.976;30.316;2023-03-14T10:53:59;7.88;;;2.55;;
75854;SDS011;64502;59.976;30.316;2023-03-14T10:56:37;7.53;;;3.53;;
75854;SDS011;64502;59.976;30.316;2023-03-14T10:59:03;9.52;;;3.83;;
75854;SDS011;64502;59.976;30.316;2023-03-14T11:01:44;9.18;;;3.47;;
75854;SDS011;64502;59.976;30.316;2023-03-14T11:04:17;8.25;;;3.40;;
75854;SDS011;64502;59.976;30.316;2023-03-14T11:09:55;6.35;;;3.38;;
75854;SDS011;64502;59.976;30.316;2023-03-14T11:20:54;9.27;;;3.03;;
75854;SDS011;64502;59.976;30.316;2023-03-14T11:23:32;14.02;;;3.83;;
75854;SDS011;64502;59.976;30.316;2023-03-14T11:28:38;9.07;;;3.22;;
75854;SDS011;64502;59.976;30.316;2023-03-14T11:39:18;17.48;;;3.78;;
75854;SDS011;64502;59.976;30.316;2023-03-14T11:42:03;8.45;;;3.15;;
75854;SDS011;64502;59.976;30.316;2023-03-14T11:44:30;9.38;;;3.55;;
75854;SDS011;64502;59.976;30.316;2023-03-14T11:47:03;7.00;;;2.80;;
75854;SDS011;64502;59.976;30.316;2023-03-14T11:52:23;8.00;;;3.80;;
75854;SDS011;64502;59.976;30.316;2023-03-14T11:57:41;11.65;;;3.35;;
75854;SDS011;64502;59.976;30.316;2023-03-14T12:00:24;8.57;;;3.90;;
75854;SDS011;64502;59.976;30.316;2023-03-14T12:11:15;12.43;;;4.13;;
75854;SDS011;64502;59.976;30.316;2023-03-14T12:13:28;8.57;;;3.40;;
75854;SDS011;64502;59.976;30.316;2023-03-14T12:18:34;11.48;;;3.55;;
75854;SDS011;64502;59.976;30.316;2023-03-14T12:21:06;13.07;;;3.35;;
75854;SDS011;64502;59.976;30.316;2023-03-14T12:23:34;9.15;;;3.70;;
75854;SDS011;64502;59.976;30.316;2023-03-14T12:28:36;8.07;;;3.38;;
75854;SDS011;64502;59.976;30.316;2023-03-14T12:36:55;6.07;;;2.75;;
75854;SDS011;64502;59.976;30.316;2023-03-14T12:45:14;9.13;;;4.25;;
75854;SDS011;64502;59.976;30.316;2023-03-14T12:53:27;13.80;;;4.68;;
75854;SDS011;64502;59.976;30.316;2023-03-14T12:56:26;12.90;;;4.22;;
75854;SDS011;64502;59.976;30.316;2023-03-14T13:01:56;10.32;;;4.05;;
75854;SDS011;64502;59.976;30.316;2023-03-14T13:04:30;10.50;;;3.70;;
75854;SDS011;64502;59.976;30.316;2023-03-14T13:06:57;12.75;;;3.90;;
75854;SDS011;64502;59.976;30.316;2023-03-14T13:11:53;9.55;;;4.30;;
75854;SDS011;64502;59.976;30.316;2023-03-14T13:14:19;12.48;;;3.95;;
75854;SDS011;64502;59.976;30.316;2023-03-14T13:16:46;12.32;;;5.82;;
75854;SDS011;64502;59.976;30.316;2023-03-14T13:19:22;9.38;;;4.65;;
75854;SDS011;64502;59.976;30.316;2023-03-14T13:21:50;8.82;;;3.95;;
75854;SDS011;64502;59.976;30.316;2023-03-14T13:24:23;9.20;;;3.97;;
75854;SDS011;64502;59.976;30.316;2023-03-14T13:26:54;11.57;;;4.35;;
75854;SDS011;64502;59.976;30.316;2023-03-14T13:29:21;10.23;;;4.00;;
75854;SDS011;64502;59.976;30.316;2023-03-14T13:31:50;10.70;;;4.57;;
75854;SDS011;64502;59.976;30.316;2023-03-14T13:34:17;13.77;;;5.13;;
75854;SDS011;64502;59.976;30.316;2023-03-14T13:36:44;11.57;;;5.20;;
75854;SDS011;64502;59.976;30.316;2023-03-14T13:39:14;14.85;;;4.60;;
75854;SDS011;64502;59.976;30.316;2023-03-14T13:41:43;11.73;;;4.78;;
75854;SDS011;64502;59.976;30.316;2023-03-14T13:44:13;10.25;;;4.20;;
75854;SDS011;64502;59.976;30.316;2023-03-14T13:46:41;13.40;;;4.85;;
75854;SDS011;64502;59.976;30.316;2023-03-14T13:49:12;11.35;;;5.32;;
75854;SDS011;64502;59.976;30.316;2023-03-14T13:51:47;11.45;;;5.97;;
75854;SDS011;64502;59.976;30.316;2023-03-14T13:54:13;12.18;;;5.30;;
75854;SDS011;64502;59.976;30.316;2023-03-14T13:56:40;14.05;;;5.43;;
75854;SDS011;64502;59.976;30.316;2023-03-14T13:59:20;14.80;;;6.70;;
75854;SDS011;64502;59.976;30.316;2023-03-14T14:01:50;11.55;;;5.50;;
75854;SDS011;64502;59.976;30.316;2023-03-14T14:04:18;13.43;;;5.07;;
75854;SDS011;64502;59.976;30.316;2023-03-14T14:06:54;14.55;;;6.25;;
75854;SDS011;64502;59.976;30.316;2023-03-14T14:09:30;12.93;;;6.15;;
75854;SDS011;64502;59.976;30.316;2023-03-14T14:12:18;14.20;;;6.65;;
75854;SDS011;64502;59.976;30.316;2023-03-14T14:17:26;18.15;;;6.93;;
75854;SDS011;64502;59.976;30.316;2023-03-14T14:19:56;18.50;;;5.90;;
75854;SDS011;64502;59.976;30.316;2023-03-14T14:22:22;16.70;;;7.63;;
75854;SDS011;64502;59.976;30.316;2023-03-14T14:24:49;16.63;;;6.13;;
75854;SDS011;64502;59.976;30.316;2023-03-14T14:27:28;11.57;;;5.03;;
75854;SDS011;64502;59.976;30.316;2023-03-14T14:32:43;12.35;;;5.50;;
75854;SDS011;64502;59.976;30.316;2023-03-14T14:35:11;15.00;;;6.30;;
75854;SDS011;64502;59.976;30.316;2023-03-14T14:37:48;12.40;;;5.18;;
75854;SDS011;64502;59.976;30.316;2023-03-14T14:42:45;12.18;;;5.72;;
75854;SDS011;64502;59.976;30.316;2023-03-14T14:45:24;12.70;;;4.97;;
75854;SDS011;64502;59.976;30.316;2023-03-14T14:47:53;15.43;;;5.57;;
75854;SDS011;64502;59.976;30.316;2023-03-14T14:50:39;12.13;;;5.57;;
75854;SDS011;64502;59.976;30.316;2023-03-14T14:55:49;17.83;;;5.88;;
75854;SDS011;64502;59.976;30.316;2023-03-14T14:58:27;12.23;;;5.68;;
75854;SDS011;64502;59.976;30.316;2023-03-14T15:01:14;17.90;;;7.80;;
75854;SDS011;64502;59.976;30.316;2023-03-14T15:03:52;18.52;;;6.65;;
75854;SDS011;64502;59.976;30.316;2023-03-14T15:06:19;14.13;;;5.32;;
75854;SDS011;64502;59.976;30.316;2023-03-14T15:08:48;14.93;;;6.07;;
75854;SDS011;64502;59.976;30.316;2023-03-14T15:11:15;14.55;;;6.03;;
75854;SDS011;64502;59.976;30.316;2023-03-14T15:13:43;13.65;;;5.68;;
75854;SDS011;64502;59.976;30.316;2023-03-14T15:16:10;11.07;;;5.07;;
75854;SDS011;64502;59.976;30.316;2023-03-14T15:18:37;12.75;;;6.20;;
75854;SDS011;64502;59.976;30.316;2023-03-14T15:21:03;12.23;;;4.95;;
75854;SDS011;64502;59.976;30.316;2023-03-14T15:23:29;14.20;;;7.82;;
75854;SDS011;64502;59.976;30.316;2023-03-14T15:25:55;12.55;;;5.18;;
75854;SDS011;64502;59.976;30.316;2023-03-14T15:28:21;11.48;;;5.45;;
75854;SDS011;64502;59.976;30.316;2023-03-14T15:30:49;10.50;;;5.88;;
75854;SDS011;64502;59.976;30.316;2023-03-14T15:33:15;14.85;;;5.18;;
75854;SDS011;64502;59.976;30.316;2023-03-14T15:35:41;12.13;;;5.53;;
75854;SDS011;64502;59.976;30.316;2023-03-14T15:38:09;14.73;;;5.93;;
75854;SDS011;64502;59.976;30.316;2023-03-14T15:40:39;14.88;;;6.05;;
75854;SDS011;64502;59.976;30.316;2023-03-14T15:43:06;12.13;;;6.15;;
75854;SDS011;64502;59.976;30.316;2023-03-14T15:45:32;12.10;;;5.50;;
75854;SDS011;64502;59.976;30.316;2023-03-14T15:47:59;16.92;;;6.82;;
75854;SDS011;64502;59.976;30.316;2023-03-14T15:50:26;15.68;;;6.78;;
75854;SDS011;64502;59.976;30.316;2023-03-14T15:52:53;15.45;;;6.15;;
75854;SDS011;64502;59.976;30.316;2023-03-14T15:55:22;15.52;;;6.28;;
75854;SDS011;64502;59.976;30.316;2023-03-14T15:57:49;14.80;;;6.43;;
75854;SDS011;64502;59.976;30.316;2023-03-14T16:00:16;13.18;;;6.00;;